Time;durP1;ratioP1;P1;durP2;ratioP2;P2;SDS_P1;SDS_P2;PMS_P1;PMS_P2;Temp;Humidity;BMP_temperature;BMP_pressure;BME280_temperature;BME280_humidity;BME280_pressure;Samples;Min_cycle;Max_cycle;Signal;HPM_P1;HPM_P2
2023/10/21 00:01:18;;;;;;;11.60;11.30;;;12.30;99.90;;;;;;5019050;27;20673;-69
2023/10/21 00:03:45;;;;;;;11.60;11.30;;;12.30;99.90;;;;;;5027783;27;20843;-71
2023/10/21 00:06:13;;;;;;;11.30;11.00;;;12.30;99.90;;;;;;5019968;27;20468;-72
2023/10/21 00:08:39;;;;;;;11.03;10.83;;;12.30;99.90;;;;;;5030098;27;20459;-71
2023/10/21 00:11:09;;;;;;;10.87;10.67;;;12.40;99.90;;;;;;5027491;27;20968;-70
2023/10/21 00:13:36;;;;;;;10.90;10.70;;;12.40;99.90;;;;;;5027494;27;20488;-71
2023/10/21 00:16:03;;;;;;;10.70;10.50;;;12.40;99.90;;;;;;5024709;27;20472;-71
2023/10/21 00:18:30;;;;;;;10.37;10.17;;;12.50;99.90;;;;;;5026079;27;20819;-72
2023/10/21 00:20:57;;;;;;;10.93;10.73;;;12.50;99.90;;;;;;5031170;27;20936;-71
2023/10/21 00:23:25;;;;;;;11.30;11.00;;;12.50;99.90;;;;;;5026355;27;20463;-70
2023/10/21 00:25:52;;;;;;;11.50;11.20;;;12.60;99.90;;;;;;5083094;27;21633;-69
2023/10/21 00:28:19;;;;;;;10.73;10.53;;;12.60;99.90;;;;;;5030123;27;20453;-71
2023/10/21 00:30:48;;;;;;;10.97;10.77;;;12.60;99.90;;;;;;5025347;27;20475;-70
2023/10/21 00:33:14;;;;;;;10.27;10.07;;;12.60;99.90;;;;;;5024375;27;20491;-72
2023/10/21 00:35:45;;;;;;;11.00;10.80;;;12.70;99.90;;;;;;5020652;27;20462;-71
2023/10/21 00:38:12;;;;;;;10.83;10.63;;;12.60;99.90;;;;;;5028496;27;20989;-69
2023/10/21 00:40:50;;;;;;;11.30;11.00;;;12.70;99.90;;;;;;5029058;27;20465;-71
2023/10/21 00:43:32;;;;;;;11.37;11.07;;;12.80;99.90;;;;;;5024448;27;20489;-72
2023/10/21 00:45:59;;;;;;;11.77;11.47;;;12.80;99.90;;;;;;5029539;27;20528;-70
2023/10/21 00:48:26;;;;;;;11.50;11.20;;;12.80;99.90;;;;;;5023535;27;20887;-70
2023/10/21 00:50:54;;;;;;;11.37;11.07;;;12.80;99.90;;;;;;5024772;27;20451;-71
2023/10/21 00:53:21;;;;;;;12.40;12.10;;;12.80;99.90;;;;;;5020437;27;20549;-70
2023/10/21 00:55:51;;;;;;;12.43;12.13;;;12.80;99.90;;;;;;5016921;27;20458;-70
2023/10/21 00:58:19;;;;;;;12.83;12.50;;;12.90;99.90;;;;;;5028645;27;20487;-69
2023/10/21 01:00:45;;;;;;;13.40;13.00;;;12.90;99.90;;;;;;5030021;27;20455;-72
2023/10/21 01:03:12;;;;;;;12.87;12.47;;;12.90;99.90;;;;;;5025811;27;20507;-72
2023/10/21 01:05:39;;;;;;;13.37;12.97;;;12.90;99.90;;;;;;5026621;27;20457;-70
2023/10/21 01:08:06;;;;;;;12.73;12.43;;;12.90;99.90;;;;;;5026695;27;20458;-70
2023/10/21 01:10:33;;;;;;;12.53;12.23;;;12.90;99.90;;;;;;5029192;27;20462;-71
2023/10/21 01:13:01;;;;;;;12.53;12.23;;;12.90;99.90;;;;;;5070960;27;20875;-70
2023/10/21 01:15:28;;;;;;;12.27;11.97;;;13.00;99.90;;;;;;5029762;27;20473;-70
2023/10/21 01:17:55;;;;;;;12.47;12.17;;;13.00;99.90;;;;;;5028113;27;20454;-70
2023/10/21 01:20:22;;;;;;;11.50;11.20;;;13.00;99.90;;;;;;5013569;27;20489;-71
2023/10/21 01:22:49;;;;;;;12.07;11.77;;;13.00;99.90;;;;;;5024467;27;20462;-72
2023/10/21 01:25:18;;;;;;;12.57;12.27;;;13.00;99.90;;;;;;5028728;27;21019;-71
2023/10/21 01:27:45;;;;;;;11.47;11.17;;;13.00;99.90;;;;;;5024809;27;20955;-71
2023/10/21 01:30:14;;;;;;;12.03;11.73;;;13.00;99.90;;;;;;5022498;27;20590;-72
2023/10/21 01:32:40;;;;;;;11.93;11.63;;;13.00;99.90;;;;;;5027940;27;20532;-71
2023/10/21 01:35:08;;;;;;;11.47;11.17;;;13.00;99.90;;;;;;5033303;27;20469;-70
2023/10/21 01:37:35;;;;;;;11.37;11.07;;;13.00;99.90;;;;;;5028942;27;20838;-71
2023/10/21 01:40:02;;;;;;;11.30;11.00;;;13.00;99.90;;;;;;5024399;27;20459;-72
2023/10/21 01:42:30;;;;;;;10.63;10.43;;;13.00;99.90;;;;;;5059283;27;20502;-71
2023/10/21 01:44:57;;;;;;;11.40;11.10;;;13.00;99.90;;;;;;5059462;27;20494;-71
2023/10/21 01:47:24;;;;;;;10.83;10.63;;;13.00;99.90;;;;;;5020917;27;20473;-72
2023/10/21 01:49:52;;;;;;;10.67;10.47;;;13.00;99.90;;;;;;5024804;27;20540;-72
2023/10/21 01:52:18;;;;;;;10.20;10.00;;;13.00;99.90;;;;;;5021032;27;20468;-71
2023/10/21 01:54:45;;;;;;;9.70;9.50;;;13.10;99.90;;;;;;5027751;27;20497;-72
2023/10/21 01:57:12;;;;;;;9.60;9.40;;;13.00;99.90;;;;;;5025120;27;20523;-73
2023/10/21 01:59:41;;;;;;;9.97;9.77;;;13.00;99.90;;;;;;5016690;27;20465;-71
2023/10/21 02:02:08;;;;;;;9.20;9.00;;;13.00;99.90;;;;;;5025694;27;20463;-70
2023/10/21 02:04:35;;;;;;;8.83;8.73;;;13.00;99.90;;;;;;5029378;27;20810;-71
2023/10/21 02:07:02;;;;;;;8.87;8.77;;;13.00;99.90;;;;;;5022919;27;20479;-71
2023/10/21 02:09:29;;;;;;;8.97;8.87;;;12.90;99.90;;;;;;5022725;27;20465;-72
2023/10/21 02:11:56;;;;;;;9.33;9.13;;;12.90;99.90;;;;;;5053899;27;20510;-71
2023/10/21 02:14:24;;;;;;;9.13;8.97;;;12.90;99.90;;;;;;5024239;27;21056;-71
2023/10/21 02:16:53;;;;;;;10.17;9.97;;;12.90;99.90;;;;;;5021901;27;20518;-69
2023/10/21 02:19:21;;;;;;;9.67;9.47;;;13.00;99.90;;;;;;5016153;28;20955;-70
2023/10/21 02:21:48;;;;;;;9.57;9.37;;;12.90;99.90;;;;;;5021890;27;20882;-71
2023/10/21 02:24:14;;;;;;;10.40;10.20;;;13.00;99.90;;;;;;5028852;27;20965;-71
2023/10/21 02:26:41;;;;;;;11.90;11.60;;;12.90;99.90;;;;;;5024784;28;20474;-72
2023/10/21 02:29:08;;;;;;;10.90;10.70;;;12.90;99.90;;;;;;5051465;27;20459;-72
2023/10/21 02:31:35;;;;;;;11.07;10.87;;;13.00;99.90;;;;;;5027516;27;20455;-71
2023/10/21 02:34:04;;;;;;;10.53;10.33;;;13.00;99.90;;;;;;5022104;27;20803;-70
2023/10/21 02:36:31;;;;;;;10.80;10.60;;;13.00;99.90;;;;;;5025138;27;20473;-71
2023/10/21 02:38:58;;;;;;;9.93;9.73;;;13.10;99.90;;;;;;5028560;27;20471;-74
2023/10/21 02:41:24;;;;;;;10.37;10.17;;;13.10;99.90;;;;;;5022962;27;20487;-71
2023/10/21 02:43:51;;;;;;;9.67;9.47;;;13.10;99.90;;;;;;5023817;28;20467;-72
2023/10/21 02:46:18;;;;;;;9.50;9.30;;;13.10;99.90;;;;;;5025539;27;20492;-71
2023/10/21 02:48:45;;;;;;;10.57;10.37;;;13.10;99.90;;;;;;5019786;28;20473;-70
2023/10/21 02:51:15;;;;;;;11.17;10.93;;;13.10;99.90;;;;;;5025488;27;20832;-69
2023/10/21 02:53:43;;;;;;;10.83;10.63;;;13.20;99.90;;;;;;5015985;28;20489;-73
2023/10/21 02:56:11;;;;;;;11.00;10.80;;;13.20;99.90;;;;;;5034062;27;20541;-69
2023/10/21 02:58:38;;;;;;;11.07;10.87;;;13.20;99.90;;;;;;5028469;28;20547;-70
2023/10/21 03:01:13;;;;;;;11.17;10.90;;;13.30;99.90;;;;;;5023729;28;20830;-70
2023/10/21 03:03:40;;;;;;;10.47;10.27;;;13.30;99.90;;;;;;5024594;28;20480;-70
2023/10/21 03:06:08;;;;;;;10.27;10.07;;;13.30;99.90;;;;;;5027867;28;20458;-72
2023/10/21 03:08:36;;;;;;;10.27;10.07;;;13.30;99.90;;;;;;5021551;28;20466;-70
2023/10/21 03:11:04;;;;;;;10.73;10.53;;;13.30;99.90;;;;;;5029827;28;20478;-70
2023/10/21 03:13:31;;;;;;;10.83;10.63;;;13.40;99.90;;;;;;5014828;28;20541;-69
2023/10/21 03:15:58;;;;;;;9.90;9.70;;;13.50;99.90;;;;;;5038952;28;20695;-71
2023/10/21 03:18:26;;;;;;;10.00;9.80;;;13.50;99.90;;;;;;5021055;28;20467;-70
2023/10/21 03:20:54;;;;;;;9.37;9.17;;;13.50;99.90;;;;;;5027104;28;20481;-71
2023/10/21 03:23:21;;;;;;;9.73;9.53;;;13.50;99.90;;;;;;5026811;28;20467;-70
2023/10/21 03:25:56;;;;;;;9.67;9.47;;;13.50;99.90;;;;;;5017545;28;20474;-70
2023/10/21 03:28:23;;;;;;;10.10;9.90;;;13.50;99.90;;;;;;5041094;28;20843;-70
2023/10/21 03:30:50;;;;;;;9.73;9.53;;;13.60;99.90;;;;;;5024333;28;20461;-72
2023/10/21 03:33:17;;;;;;;10.03;9.83;;;13.60;99.90;;;;;;5023277;28;20837;-71
2023/10/21 03:35:51;;;;;;;9.50;9.30;;;13.60;99.90;;;;;;5021913;28;20526;-71
2023/10/21 03:38:18;;;;;;;10.60;10.40;;;13.60;99.90;;;;;;5009786;28;20579;-72
2023/10/21 03:40:45;;;;;;;11.47;11.17;;;13.60;99.90;;;;;;5024131;28;21001;-70
2023/10/21 03:43:14;;;;;;;10.90;10.70;;;13.70;99.90;;;;;;5026097;28;20462;-71
2023/10/21 03:45:41;;;;;;;10.47;10.27;;;13.70;99.90;;;;;;5082712;28;20586;-72
2023/10/21 03:48:07;;;;;;;9.00;8.90;;;13.70;99.90;;;;;;5036005;28;20507;-71
2023/10/21 03:50:34;;;;;;;8.97;8.87;;;13.70;99.90;;;;;;5043366;28;20456;-70
2023/10/21 03:53:01;;;;;;;9.27;9.07;;;13.80;99.90;;;;;;5027651;28;20461;-70
2023/10/21 03:55:28;;;;;;;8.90;8.80;;;13.80;99.90;;;;;;5012045;28;21208;-71
2023/10/21 03:57:55;;;;;;;9.30;9.10;;;13.80;99.90;;;;;;5024570;28;20509;-72
2023/10/21 04:00:23;;;;;;;9.33;9.13;;;13.80;99.90;;;;;;5027460;28;20488;-70
2023/10/21 04:02:51;;;;;;;9.40;9.20;;;13.80;99.90;;;;;;5025090;28;20763;-70
2023/10/21 04:05:18;;;;;;;9.60;9.40;;;13.90;99.90;;;;;;5019190;28;20463;-69
2023/10/21 04:07:45;;;;;;;9.00;8.90;;;13.90;99.90;;;;;;5027469;28;20469;-71
2023/10/21 04:10:12;;;;;;;8.00;7.90;;;13.90;99.90;;;;;;5014030;28;20557;-70
2023/10/21 04:12:40;;;;;;;8.40;8.30;;;13.90;99.90;;;;;;5024076;28;20452;-71
2023/10/21 04:15:08;;;;;;;9.50;9.30;;;13.90;99.90;;;;;;5023322;28;20892;-72
2023/10/21 04:17:40;;;;;;;9.20;9.03;;;13.80;99.90;;;;;;5021491;28;20828;-69
2023/10/21 04:20:07;;;;;;;9.83;9.63;;;13.80;99.90;;;;;;5025101;28;20941;-69
2023/10/21 04:22:34;;;;;;;9.43;9.23;;;13.80;99.90;;;;;;5025954;28;20450;-72
2023/10/21 04:25:02;;;;;;;9.53;9.33;;;13.80;99.90;;;;;;5019743;27;20972;-71
2023/10/21 04:27:29;;;;;;;9.70;9.50;;;13.70;99.90;;;;;;5030167;27;20477;-70
2023/10/21 04:29:56;;;;;;;10.20;10.00;;;13.60;99.90;;;;;;5029391;27;20489;-70
2023/10/21 04:32:24;;;;;;;10.50;10.30;;;13.60;99.90;;;;;;5027424;27;20516;-69
2023/10/21 04:34:52;;;;;;;10.83;10.63;;;13.50;99.90;;;;;;5019845;27;20585;-71
2023/10/21 04:37:19;;;;;;;10.57;10.37;;;13.50;99.90;;;;;;5022698;27;20475;-70
2023/10/21 04:39:46;;;;;;;10.40;10.20;;;13.40;99.90;;;;;;5020292;27;20538;-72
2023/10/21 04:42:13;;;;;;;10.30;10.10;;;13.50;99.90;;;;;;5030059;27;20486;-70
2023/10/21 04:44:40;;;;;;;10.50;10.30;;;13.30;99.90;;;;;;5024887;28;20496;-70
2023/10/21 04:47:07;;;;;;;11.10;10.90;;;13.30;99.90;;;;;;5035353;27;20471;-72
2023/10/21 04:49:34;;;;;;;10.07;9.87;;;13.20;99.90;;;;;;5030236;27;20553;-70
2023/10/21 04:52:02;;;;;;;10.73;10.53;;;13.00;99.90;;;;;;5012185;28;20549;-69
2023/10/21 04:54:29;;;;;;;11.00;10.80;;;12.90;99.90;;;;;;5040149;27;20777;-69
2023/10/21 04:56:56;;;;;;;11.40;11.10;;;12.90;99.90;;;;;;5030324;27;20944;-70
2023/10/21 04:59:23;;;;;;;12.03;11.73;;;12.90;99.90;;;;;;5049555;27;20468;-72
2023/10/21 05:01:49;;;;;;;11.77;11.47;;;12.80;99.90;;;;;;5017387;27;20860;-69
2023/10/21 05:04:16;;;;;;;11.27;10.97;;;12.80;99.90;;;;;;5024326;27;20524;-70
2023/10/21 05:06:43;;;;;;;11.80;11.50;;;12.70;99.90;;;;;;5018965;27;20471;-69
2023/10/21 05:09:11;;;;;;;11.63;11.33;;;12.70;99.90;;;;;;5023436;27;20462;-71
2023/10/21 05:11:38;;;;;;;12.03;11.73;;;12.60;99.90;;;;;;5043057;27;20628;-71
2023/10/21 05:14:08;;;;;;;12.90;12.50;;;12.50;99.90;;;;;;5025956;27;20839;-69
2023/10/21 05:16:34;;;;;;;12.40;12.10;;;12.50;99.90;;;;;;5067992;27;20464;-70
2023/10/21 05:19:03;;;;;;;12.50;12.20;;;12.40;99.90;;;;;;5025586;27;20467;-70
2023/10/21 05:21:30;;;;;;;13.10;12.70;;;12.40;99.90;;;;;;5022828;27;20481;-71
2023/10/21 05:23:58;;;;;;;12.53;12.23;;;12.40;99.90;;;;;;5026299;27;20831;-69
2023/10/21 05:26:28;;;;;;;12.13;11.83;;;12.40;99.90;;;;;;5016696;27;20462;-70
2023/10/21 05:28:55;;;;;;;12.53;12.23;;;12.30;99.90;;;;;;5026155;27;20457;-70
2023/10/21 05:31:22;;;;;;;12.70;12.40;;;12.30;99.90;;;;;;5030513;27;20989;-71
2023/10/21 05:33:49;;;;;;;12.50;12.20;;;12.20;99.90;;;;;;5023963;27;20462;-69
2023/10/21 05:36:16;;;;;;;13.40;13.00;;;12.10;99.90;;;;;;5014510;27;20458;-69
2023/10/21 05:38:43;;;;;;;12.83;12.50;;;12.10;99.90;;;;;;5015103;27;21426;-71
2023/10/21 05:41:10;;;;;;;13.13;12.73;;;12.10;99.90;;;;;;5023805;27;20465;-69
2023/10/21 05:43:39;;;;;;;12.73;12.43;;;12.00;99.90;;;;;;5063323;27;20458;-69
2023/10/21 05:46:07;;;;;;;12.70;12.40;;;12.00;99.90;;;;;;5035261;27;20465;-69
2023/10/21 05:48:34;;;;;;;12.03;11.73;;;12.10;99.90;;;;;;5017703;27;20469;-70
2023/10/21 05:51:01;;;;;;;12.40;12.10;;;12.30;99.90;;;;;;5042327;27;20829;-71
2023/10/21 05:53:28;;;;;;;11.03;10.83;;;12.30;99.90;;;;;;5016018;27;20447;-68
2023/10/21 05:55:56;;;;;;;12.33;12.03;;;12.40;99.90;;;;;;5025639;28;20494;-70
2023/10/21 05:58:24;;;;;;;11.03;10.83;;;12.50;99.90;;;;;;5023029;27;20830;-69
2023/10/21 06:00:52;;;;;;;11.63;11.33;;;12.50;99.90;;;;;;5017513;27;20526;-69
2023/10/21 06:03:19;;;;;;;12.10;11.80;;;12.60;99.90;;;;;;5025028;27;20531;-70
2023/10/21 06:05:47;;;;;;;10.93;10.73;;;12.60;99.90;;;;;;5020464;27;20767;-70
2023/10/21 06:08:13;;;;;;;11.80;11.50;;;12.70;99.90;;;;;;5025831;28;20457;-69
2023/10/21 06:10:44;;;;;;;11.37;11.07;;;12.80;99.90;;;;;;5016391;27;20468;-69
2023/10/21 06:13:10;;;;;;;11.33;11.03;;;12.90;99.90;;;;;;5029869;27;20867;-71
2023/10/21 06:15:38;;;;;;;11.13;10.93;;;13.00;99.90;;;;;;5018952;27;20520;-70
2023/10/21 06:18:06;;;;;;;10.67;10.47;;;13.00;99.90;;;;;;5018802;27;20553;-71
2023/10/21 06:20:34;;;;;;;10.80;10.60;;;13.00;99.90;;;;;;5011497;27;20470;-71
2023/10/21 06:23:01;;;;;;;10.00;9.80;;;13.10;99.90;;;;;;5025876;27;20482;-71
2023/10/21 06:25:29;;;;;;;10.47;10.27;;;13.10;99.90;;;;;;5028763;27;20802;-71
2023/10/21 06:27:56;;;;;;;10.00;9.80;;;13.10;99.90;;;;;;5020297;28;20472;-71
2023/10/21 06:30:22;;;;;;;10.57;10.37;;;13.10;99.90;;;;;;5021203;27;20916;-70
2023/10/21 06:32:49;;;;;;;10.40;10.20;;;13.30;99.90;;;;;;5025078;27;20536;-69
2023/10/21 06:35:17;;;;;;;9.10;8.90;;;13.30;99.90;;;;;;5011478;27;20490;-69
2023/10/21 06:37:44;;;;;;;9.53;9.33;;;13.30;99.90;;;;;;5019926;27;20547;-71
2023/10/21 06:40:12;;;;;;;10.33;10.13;;;13.30;99.90;;;;;;5023485;27;20960;-71
2023/10/21 06:42:38;;;;;;;10.20;10.00;;;13.40;99.90;;;;;;5020545;27;20489;-72
2023/10/21 06:45:06;;;;;;;10.80;10.60;;;13.50;99.90;;;;;;5017741;28;20489;-70
2023/10/21 06:47:34;;;;;;;10.40;10.20;;;13.50;99.90;;;;;;5046865;27;20452;-70
2023/10/21 06:50:02;;;;;;;9.83;9.63;;;13.60;99.90;;;;;;5027179;27;20708;-70
2023/10/21 06:52:31;;;;;;;10.17;9.97;;;13.60;99.90;;;;;;5018646;27;20554;-71
2023/10/21 06:54:58;;;;;;;9.57;9.37;;;13.60;99.90;;;;;;5014214;27;20497;-69
2023/10/21 06:57:25;;;;;;;10.20;10.00;;;13.70;99.90;;;;;;5021283;27;20961;-70
2023/10/21 06:59:53;;;;;;;9.23;9.03;;;13.80;99.90;;;;;;5014777;27;20461;-69
2023/10/21 07:02:19;;;;;;;8.77;8.67;;;13.80;99.90;;;;;;5031656;27;20457;-70
2023/10/21 07:04:47;;;;;;;8.43;8.33;;;13.80;99.90;;;;;;5021240;28;20455;-70
2023/10/21 07:07:13;;;;;;;8.73;8.63;;;13.80;99.90;;;;;;5005895;28;20469;-71
2023/10/21 07:09:41;;;;;;;8.07;7.97;;;13.80;99.90;;;;;;5022690;28;20465;-69
2023/10/21 07:12:11;;;;;;;8.80;8.70;;;13.80;99.90;;;;;;5020204;28;20467;-69
2023/10/21 07:14:37;;;;;;;8.57;8.47;;;13.80;99.90;;;;;;5010764;28;20465;-70
2023/10/21 07:17:05;;;;;;;8.23;8.13;;;13.80;99.90;;;;;;5014299;28;20516;-69
2023/10/21 07:19:32;;;;;;;8.10;8.00;;;13.80;99.90;;;;;;5019467;28;20966;-69
2023/10/21 07:21:59;;;;;;;8.77;8.67;;;13.80;99.90;;;;;;5065823;28;20877;-69
2023/10/21 07:24:26;;;;;;;8.67;8.57;;;13.80;99.90;;;;;;5030806;28;21006;-70
2023/10/21 07:26:54;;;;;;;8.80;8.70;;;13.70;99.90;;;;;;5038829;28;20459;-70
2023/10/21 07:29:22;;;;;;;9.37;9.17;;;13.80;99.90;;;;;;5037672;28;20458;-70
2023/10/21 07:31:49;;;;;;;10.27;10.07;;;13.90;99.90;;;;;;5026232;28;20489;-69
2023/10/21 07:34:15;;;;;;;10.00;9.80;;;13.90;99.90;;;;;;5017387;28;20473;-70
2023/10/21 07:36:43;;;;;;;9.87;9.67;;;13.90;99.90;;;;;;5016761;28;20865;-71
2023/10/21 07:39:09;;;;;;;10.20;10.00;;;13.80;99.90;;;;;;5025567;28;20464;-70
2023/10/21 07:41:36;;;;;;;10.00;9.80;;;13.80;99.90;;;;;;5017075;28;20790;-69
2023/10/21 07:44:05;;;;;;;9.90;9.70;;;13.70;99.90;;;;;;5017679;28;20478;-70
2023/10/21 07:46:32;;;;;;;8.77;8.67;;;13.70;99.90;;;;;;5016728;28;20502;-70
2023/10/21 07:48:59;;;;;;;8.90;8.70;;;13.60;99.90;;;;;;5013353;28;20816;-71
2023/10/21 07:51:29;;;;;;;8.53;8.43;;;13.60;99.90;;;;;;5023697;28;20458;-72
2023/10/21 07:53:56;;;;;;;8.47;8.37;;;13.70;99.90;;;;;;5013174;28;20941;-70
2023/10/21 07:56:23;;;;;;;8.30;8.20;;;13.70;99.90;;;;;;5019340;28;20565;-70
2023/10/21 07:58:50;;;;;;;8.37;8.27;;;13.80;99.90;;;;;;5021273;28;20482;-70
2023/10/21 08:01:19;;;;;;;8.57;8.47;;;13.80;99.90;;;;;;5022073;27;20461;-71
2023/10/21 08:03:46;;;;;;;8.27;8.17;;;13.80;99.90;;;;;;5026482;27;21990;-72
2023/10/21 08:06:14;;;;;;;8.40;8.30;;;13.80;99.90;;;;;;5009579;27;21519;-70
2023/10/21 08:08:42;;;;;;;8.57;8.47;;;13.90;99.90;;;;;;5028137;27;20492;-72
2023/10/21 08:11:09;;;;;;;8.30;8.20;;;13.90;99.90;;;;;;5024357;27;20798;-71
2023/10/21 08:13:36;;;;;;;9.07;8.87;;;14.00;99.90;;;;;;5023087;27;20457;-72
2023/10/21 08:16:04;;;;;;;9.60;9.40;;;14.00;99.90;;;;;;5021758;27;20536;-71
2023/10/21 08:18:32;;;;;;;9.57;9.37;;;14.10;99.90;;;;;;5027793;27;20505;-72
2023/10/21 08:20:58;;;;;;;10.10;9.90;;;14.20;99.90;;;;;;5012133;27;20962;-72
2023/10/21 08:23:27;;;;;;;10.20;10.00;;;14.30;99.90;;;;;;5016578;27;20455;-71
2023/10/21 08:25:54;;;;;;;10.20;10.00;;;14.40;99.90;;;;;;5019212;27;20986;-70
2023/10/21 08:28:21;;;;;;;10.50;10.30;;;14.40;99.90;;;;;;5014422;27;20474;-71
2023/10/21 08:30:48;;;;;;;10.53;10.33;;;14.30;99.90;;;;;;5020907;28;20489;-71
2023/10/21 08:33:15;;;;;;;10.67;10.47;;;14.40;99.90;;;;;;5026273;27;20463;-72
2023/10/21 08:35:44;;;;;;;10.87;10.57;;;14.40;99.90;;;;;;5016725;27;20836;-72
2023/10/21 08:38:13;;;;;;;10.33;10.13;;;14.40;99.90;;;;;;5025113;27;20474;-70
2023/10/21 08:40:41;;;;;;;10.53;10.33;;;14.40;99.90;;;;;;5024852;27;20582;-71
2023/10/21 08:43:09;;;;;;;11.00;10.70;;;14.20;99.90;;;;;;5018000;27;20529;-71
2023/10/21 08:45:36;;;;;;;10.57;10.37;;;14.20;99.90;;;;;;5022622;27;21055;-71
2023/10/21 08:48:04;;;;;;;10.67;10.47;;;14.20;99.90;;;;;;5023088;27;20448;-72
2023/10/21 08:50:35;;;;;;;10.43;10.23;;;14.30;99.90;;;;;;5014152;27;20471;-71
2023/10/21 08:53:06;;;;;;;10.23;10.03;;;14.40;99.90;;;;;;5015985;27;20846;-71
2023/10/21 08:55:35;;;;;;;10.70;10.50;;;14.40;99.90;;;;;;5018350;27;20776;-70
2023/10/21 08:58:02;;;;;;;10.50;10.30;;;14.50;99.90;;;;;;5011581;27;20527;-71
2023/10/21 09:00:29;;;;;;;11.00;10.70;;;14.60;99.90;;;;;;5006913;27;20474;-69
2023/10/21 09:02:55;;;;;;;10.13;9.93;;;14.70;99.90;;;;;;5018866;28;20545;-70
2023/10/21 09:05:23;;;;;;;10.70;10.50;;;14.70;99.90;;;;;;5022812;27;20462;-70
2023/10/21 09:07:51;;;;;;;11.13;10.83;;;14.80;99.90;;;;;;5016175;27;20471;-71
2023/10/21 09:10:21;;;;;;;11.33;11.03;;;14.90;99.90;;;;;;5017484;27;20475;-70
2023/10/21 09:12:47;;;;;;;11.10;10.80;;;15.20;99.90;;;;;;5010543;28;21328;-71
2023/10/21 09:15:14;;;;;;;11.00;10.70;;;15.20;99.90;;;;;;5025666;27;20459;-71
2023/10/21 09:17:45;;;;;;;11.20;10.90;;;15.20;99.90;;;;;;5026435;27;20563;-70
2023/10/21 09:20:13;;;;;;;11.20;10.90;;;15.20;99.90;;;;;;5024336;27;20550;-71
2023/10/21 09:22:41;;;;;;;11.50;11.20;;;15.10;99.90;;;;;;5028118;27;20455;-70
2023/10/21 09:25:14;;;;;;;11.50;11.20;;;15.10;99.90;;;;;;5015372;27;20466;-70
2023/10/21 09:27:44;;;;;;;11.80;11.50;;;15.10;99.90;;;;;;5023432;28;20461;-69
2023/10/21 09:30:16;;;;;;;11.50;11.20;;;15.20;99.90;;;;;;5027158;28;21112;-71
2023/10/21 09:32:43;;;;;;;12.20;11.90;;;15.30;99.90;;;;;;5017112;27;20469;-69
2023/10/21 09:35:24;;;;;;;11.33;11.03;;;15.20;99.90;;;;;;5015317;27;20801;-70
2023/10/21 09:37:51;;;;;;;12.03;11.73;;;15.30;99.90;;;;;;5026008;28;20908;-71
2023/10/21 09:40:19;;;;;;;12.10;11.80;;;15.40;99.90;;;;;;5019964;27;20461;-71
2023/10/21 09:42:52;;;;;;;11.93;11.63;;;15.20;99.90;;;;;;5026301;27;20859;-71
2023/10/21 09:45:19;;;;;;;11.63;11.33;;;15.20;99.90;;;;;;5020804;28;20487;-70
2023/10/21 09:47:47;;;;;;;11.93;11.63;;;15.30;99.90;;;;;;5009932;28;20478;-71
2023/10/21 09:50:16;;;;;;;11.97;11.67;;;15.40;99.90;;;;;;5015237;27;20550;-71
2023/10/21 09:52:49;;;;;;;11.67;11.37;;;15.50;99.90;;;;;;5022512;27;20976;-70
2023/10/21 09:55:17;;;;;;;11.50;11.20;;;15.40;99.90;;;;;;5025611;27;20507;-71
2023/10/21 09:57:48;;;;;;;12.17;11.87;;;15.50;99.90;;;;;;5018288;27;20469;-70
2023/10/21 10:00:19;;;;;;;11.90;11.60;;;15.50;99.90;;;;;;5017539;27;20481;-72
2023/10/21 10:02:48;;;;;;;11.90;11.60;;;15.60;99.90;;;;;;5023039;28;20459;-72
2023/10/21 10:05:16;;;;;;;12.07;11.77;;;15.60;99.90;;;;;;5016848;27;20455;-71
2023/10/21 10:07:45;;;;;;;11.53;11.23;;;15.90;99.90;;;;;;5025707;27;20963;-71
2023/10/21 10:10:13;;;;;;;12.50;12.20;;;16.10;99.90;;;;;;5042945;27;20895;-71
2023/10/21 10:12:46;;;;;;;11.80;11.50;;;16.20;99.90;;;;;;5026707;27;20897;-71
2023/10/21 10:15:45;;;;;;;11.97;11.67;;;16.80;99.90;;;;;;5016869;28;20551;-70
2023/10/21 10:18:18;;;;;;;12.23;11.93;;;16.90;99.90;;;;;;5026789;28;20831;-71
2023/10/21 10:20:46;;;;;;;11.80;11.50;;;17.10;99.90;;;;;;5028815;27;20552;-73
2023/10/21 10:23:13;;;;;;;12.30;12.00;;;17.30;99.90;;;;;;5047344;27;20468;-73
2023/10/21 10:25:43;;;;;;;12.57;12.23;;;17.30;99.90;;;;;;5036371;27;20474;-73
2023/10/21 10:28:17;;;;;;;12.37;12.07;;;17.20;99.90;;;;;;5026073;27;20469;-71
2023/10/21 10:30:45;;;;;;;12.53;12.20;;;17.50;99.90;;;;;;5044781;27;21109;-71
2023/10/21 10:33:15;;;;;;;13.03;12.63;;;17.80;99.90;;;;;;5042383;27;20468;-71
2023/10/21 10:35:47;;;;;;;12.67;12.27;;;17.60;99.90;;;;;;5049525;27;20488;-71
2023/10/21 10:38:20;;;;;;;12.97;12.57;;;17.50;99.90;;;;;;5023332;27;20477;-72
2023/10/21 10:40:47;;;;;;;13.10;12.70;;;17.80;99.90;;;;;;5021147;28;20563;-72
2023/10/21 10:43:16;;;;;;;13.40;13.00;;;17.60;99.90;;;;;;5017958;28;20471;-70
2023/10/21 10:45:45;;;;;;;13.70;13.30;;;17.60;99.90;;;;;;5018072;28;20482;-72
2023/10/21 10:48:14;;;;;;;13.23;12.83;;;17.80;99.90;;;;;;5024230;28;20456;-72
2023/10/21 10:50:40;;;;;;;12.70;12.30;;;17.70;99.90;;;;;;5022096;27;20580;-70
2023/10/21 10:53:15;;;;;;;12.77;12.37;;;18.00;99.90;;;;;;5016451;27;20809;-68
2023/10/21 10:55:44;;;;;;;13.60;13.20;;;17.80;99.90;;;;;;5014405;28;20461;-70
2023/10/21 10:58:12;;;;;;;12.83;12.43;;;17.60;99.90;;;;;;5022525;27;20462;-72
2023/10/21 11:00:40;;;;;;;13.10;12.70;;;17.40;99.90;;;;;;5026036;28;20452;-70
2023/10/21 11:03:09;;;;;;;13.07;12.67;;;16.80;99.90;;;;;;5018464;27;20485;-69
2023/10/21 11:05:37;;;;;;;12.67;12.27;;;17.00;99.90;;;;;;5013336;28;21092;-70
2023/10/21 11:08:07;;;;;;;13.07;12.67;;;17.40;99.90;;;;;;5007932;28;20954;-71
2023/10/21 11:10:34;;;;;;;13.20;12.80;;;17.70;99.90;;;;;;5030130;28;20831;-69
2023/10/21 11:13:03;;;;;;;13.10;12.70;;;18.10;99.90;;;;;;5025590;28;20458;-70
2023/10/21 11:15:31;;;;;;;13.30;12.90;;;18.40;99.90;;;;;;5022696;27;20959;-70
2023/10/21 11:18:00;;;;;;;13.23;12.83;;;18.50;99.90;;;;;;5017249;28;20511;-71
2023/10/21 11:20:29;;;;;;;12.80;12.40;;;18.60;99.90;;;;;;5026498;28;20462;-70
2023/10/21 11:22:56;;;;;;;13.70;13.30;;;18.70;99.90;;;;;;5024978;28;20826;-69
2023/10/21 11:25:24;;;;;;;13.20;12.80;;;18.70;99.90;;;;;;5014673;28;20571;-70
2023/10/21 11:27:51;;;;;;;13.90;13.50;;;18.60;99.90;;;;;;5024446;28;20453;-70
2023/10/21 11:30:18;;;;;;;13.70;13.30;;;18.00;99.90;;;;;;5027142;28;20461;-71
2023/10/21 11:32:45;;;;;;;13.20;12.80;;;17.30;99.90;;;;;;5021957;28;20470;-70
2023/10/21 11:35:14;;;;;;;13.27;12.87;;;17.30;99.90;;;;;;5016511;27;21044;-70
2023/10/21 11:37:43;;;;;;;13.20;12.80;;;17.40;99.90;;;;;;5026787;27;20495;-68
2023/10/21 11:40:12;;;;;;;13.10;12.70;;;17.50;99.90;;;;;;5017245;27;20474;-70
2023/10/21 11:42:38;;;;;;;13.33;12.93;;;17.40;99.90;;;;;;5023512;27;20484;-70
2023/10/21 11:45:09;;;;;;;12.93;12.53;;;17.40;99.90;;;;;;5021197;27;20485;-71
2023/10/21 11:47:38;;;;;;;12.80;12.40;;;17.30;99.90;;;;;;5027062;27;20468;-71
2023/10/21 11:50:09;;;;;;;13.17;12.77;;;17.50;99.90;;;;;;5029949;27;20480;-71
2023/10/21 11:52:38;;;;;;;13.57;13.17;;;18.30;99.90;;;;;;5018195;28;20990;-71
2023/10/21 11:55:33;;;;;;;13.70;13.30;;;18.80;99.90;;;;;;5016234;27;20481;-70
2023/10/21 11:58:45;;;;;;;13.70;13.30;;;19.20;99.90;;;;;;5020920;27;20843;-70
2023/10/21 12:10:37;;;;;;;14.47;13.97;;;19.50;99.90;;;;;;5014446;27;20564;-71
2023/10/21 12:32:28;;;;;;;14.00;13.50;;;18.20;99.90;;;;;;5027186;28;20974;-70
2023/10/21 12:38:20;;;;;;;14.37;13.87;;;18.70;99.90;;;;;;5021968;28;20518;-70
2023/10/21 12:40:59;;;;;;;13.70;13.30;;;18.90;99.90;;;;;;5022129;27;20472;-72
2023/10/21 12:43:34;;;;;;;14.10;13.60;;;18.70;99.90;;;;;;5017829;28;20474;-71
2023/10/21 12:46:14;;;;;;;14.17;13.67;;;18.40;99.90;;;;;;5026259;27;20499;-70
2023/10/21 12:48:42;;;;;;;14.30;13.80;;;18.00;99.90;;;;;;5017260;27;20500;-70
2023/10/21 12:51:14;;;;;;;14.23;13.73;;;17.70;99.90;;;;;;5017777;28;20514;-72
2023/10/21 12:53:41;;;;;;;14.23;13.73;;;17.70;99.90;;;;;;5014324;27;20472;-72
2023/10/21 12:56:08;;;;;;;14.50;14.00;;;17.90;99.90;;;;;;5026763;27;20583;-71
2023/10/21 12:58:35;;;;;;;14.57;14.07;;;17.90;99.90;;;;;;5023028;27;20481;-71
2023/10/21 13:01:05;;;;;;;14.80;14.30;;;17.80;99.90;;;;;;5018357;27;20477;-73
2023/10/21 13:03:32;;;;;;;14.83;14.33;;;17.50;99.90;;;;;;5017303;27;20466;-70
2023/10/21 13:05:59;;;;;;;14.67;14.17;;;17.30;99.90;;;;;;5023380;27;20461;-69
2023/10/21 13:08:27;;;;;;;14.27;13.77;;;17.50;99.90;;;;;;5021259;27;20496;-71